This is the latest recevied weather packets stored in our database for station/object OE5HMR-13. If no packets are shown the sender has not sent any weather packets the latest 10 day(s).
| Time | Temp. | Humidity | Pressure | Rain* | Wind** | Luminosity | Snow |
|---|---|---|---|---|---|---|---|
| 1777413328 | 6.11° C | 48% | 1018.9 hPa | 0 mm | - | - | - |
| 1777409133 | 7.22° C | 44% | 1017.8 hPa | 0 mm | - | - | - |
| 1777408531 | 7.22° C | 44% | 1017.8 hPa | 0 mm | - | - | - |
| 1777404933 | 7.78° C | 42% | 1017.8 hPa | 0 mm | - | - | - |
| 1777401935 | 9.44° C | 38% | 1017.8 hPa | 0 mm | - | - | - |
| 1777400748 | 10° C | 37% | 1017.8 hPa | 0 mm | - | - | - |
| 1777399525 | 11.11° C | 36% | 1016.7 hPa | 0 mm | - | - | - |
| 1777397131 | 12.22° C | 34% | 1016.7 hPa | 0 mm | - | - | - |
| 1777393525 | 13.89° C | 32% | 1016.7 hPa | 0 mm | - | - | - |
| 1777391751 | 15.56° C | 31% | 1016.7 hPa | 0 mm | - | - | - |
| 1777384524 | 15.56° C | 33% | 1017.8 hPa | 0 mm | - | - | - |
| 1777378531 | 15.56° C | 35% | 1017.8 hPa | 0 mm | - | - | - |
| 1777376144 | 15.56° C | 37% | 1017.8 hPa | 0 mm | - | - | - |
| 1777368328 | 13.33° C | 41% | 1016.7 hPa | 0 mm | - | - | - |
| 1777367723 | 12.78° C | 41% | 1016.7 hPa | - | - | - | - |
| 1777366544 | 12.78° C | 42% | 1016.7 hPa | - | - | - | - |
| 1777364746 | 11.67° C | 42% | 1016.7 hPa | - | - | - | - |
| 1777360531 | 11.11° C | 47% | 1016.7 hPa | - | - | - | - |
| 1777359937 | 10.56° C | 47% | 1016.7 hPa | - | - | - | - |
| 1777358138 | 9.44° C | 49% | 1016.7 hPa | - | - | - | - |
| 1777355728 | 6.67° C | 53% | 1015.6 hPa | - | - | - | - |
| 1777347931 | 3.33° C | 51% | 1015.6 hPa | - | - | - | - |
| 1777346741 | 3.33° C | 50% | 1015.6 hPa | - | - | - | - |
| 1777343733 | 3.89° C | 47% | 1016.7 hPa | - | - | - | - |
| 1777338043 | 5° C | 47% | 1016.7 hPa | - | - | - | - |
* Rain latest hour (hover to see other rain measurements)
** Current wind speed in m/s (hover to see current wind gust speed)